createdAt,value
2018-12-27T00:00:55.912Z,6.84
2018-12-27T00:03:23.100Z,6.83
2018-12-27T00:06:09.465Z,6.72
2018-12-27T00:08:36.431Z,6.79
2018-12-27T00:11:03.158Z,6.77
2018-12-27T00:13:30.226Z,6.82
2018-12-27T00:16:16.838Z,6.79
2018-12-27T00:19:03.188Z,6.73
2018-12-27T00:24:02.565Z,6.75
2018-12-27T00:26:49.015Z,6.72
2018-12-27T00:29:35.508Z,6.73
2018-12-27T00:34:34.836Z,6.70
2018-12-27T00:37:01.473Z,6.68
2018-12-27T00:39:28.177Z,6.64
2018-12-27T00:41:54.814Z,6.67
2018-12-27T00:44:21.520Z,6.66
2018-12-27T00:49:20.607Z,6.63
2018-12-27T00:51:47.243Z,6.66
2018-12-27T00:56:46.723Z,6.63
2018-12-27T00:59:13.704Z,6.59
2018-12-27T01:04:13.116Z,6.59
2018-12-27T01:06:40.102Z,6.60
2018-12-27T01:09:06.803Z,6.52
2018-12-27T01:11:33.440Z,6.60
2018-12-27T01:14:00.088Z,6.64
2018-12-27T01:19:00.251Z,6.61
2018-12-27T01:21:27.915Z,6.66
2018-12-27T01:26:27.008Z,6.62
2018-12-27T01:28:53.659Z,6.66
2018-12-27T01:33:53.422Z,6.69
2018-12-27T01:36:20.058Z,6.65
2018-12-27T01:38:47.485Z,6.71
2018-12-27T01:41:14.431Z,6.69
2018-12-27T01:43:41.374Z,6.76
2018-12-27T01:48:41.306Z,6.70
2018-12-27T01:51:07.941Z,6.73
2018-12-27T01:56:07.012Z,6.76
2018-12-27T01:58:33.649Z,6.73
2018-12-27T02:01:00.464Z,6.78
2018-12-27T02:03:27.102Z,6.71
2018-12-27T02:05:53.735Z,6.67
2018-12-27T02:10:52.727Z,6.72
2018-12-27T02:13:19.378Z,6.74
2018-12-27T02:15:46.104Z,6.70
2018-12-27T02:18:12.738Z,6.70
2018-12-27T02:20:39.377Z,6.69
2018-12-27T02:23:25.753Z,6.67
2018-12-27T02:25:52.658Z,6.71
2018-12-27T02:28:19.305Z,6.73
2018-12-27T02:30:46.000Z,6.70
2018-12-27T02:33:12.635Z,6.66
2018-12-27T02:35:39.552Z,6.63
2018-12-27T02:40:39.815Z,6.64
2018-12-27T02:43:06.469Z,6.68
2018-12-27T02:48:06.484Z,6.59
2018-12-27T02:50:33.118Z,6.58
2018-12-27T02:52:59.821Z,6.64
2018-12-27T02:55:26.460Z,6.62
2018-12-27T02:57:53.393Z,6.57
2018-12-27T03:00:20.082Z,6.59
2018-12-27T03:02:46.718Z,6.66
2018-12-27T03:05:33.027Z,6.57
2018-12-27T03:07:59.668Z,6.57
2018-12-27T03:10:26.320Z,6.55
2018-12-27T03:15:26.166Z,6.60
2018-12-27T03:17:52.798Z,6.60
2018-12-27T03:22:52.173Z,6.61
2018-12-27T03:25:18.811Z,6.59
2018-12-27T03:27:45.519Z,6.58
2018-12-27T03:30:12.173Z,6.55
2018-12-27T03:32:38.941Z,6.58
2018-12-27T03:35:05.653Z,6.57
2018-12-27T03:37:32.688Z,6.60
2018-12-27T03:39:59.336Z,6.55
2018-12-27T03:44:58.549Z,6.53
2018-12-27T03:47:25.210Z,6.58
2018-12-27T03:52:24.626Z,6.58
2018-12-27T03:54:51.586Z,6.55
2018-12-27T03:57:18.352Z,6.54
2018-12-27T03:59:44.987Z,6.55
2018-12-27T04:02:11.622Z,6.53
2018-12-27T04:07:11.016Z,6.59
2018-12-27T04:09:37.958Z,6.51
2018-12-27T04:14:37.786Z,6.56
2018-12-27T04:17:45.971Z,6.54
2018-12-27T04:20:32.878Z,6.58
2018-12-27T04:23:19.361Z,6.57
2018-12-27T04:26:05.710Z,6.53
2018-12-27T04:28:52.409Z,6.54
2018-12-27T04:32:00.170Z,6.53
2018-12-27T04:37:40.672Z,6.56
2018-12-27T04:40:07.532Z,6.55
2018-12-27T04:42:34.273Z,6.48
2018-12-27T04:45:20.714Z,6.49
2018-12-27T04:47:47.743Z,6.51
2018-12-27T04:50:14.685Z,6.50
2018-12-27T04:55:14.511Z,6.48
2018-12-27T04:57:41.148Z,6.53
2018-12-27T05:00:08.025Z,6.55
2018-12-27T05:02:34.661Z,6.48
2018-12-27T05:05:01.293Z,6.48
2018-12-27T05:07:28.008Z,6.45
2018-12-27T05:09:54.749Z,6.43
2018-12-27T05:12:41.178Z,6.42
2018-12-27T05:15:07.814Z,6.40
2018-12-27T05:17:54.505Z,6.35
2018-12-27T05:20:40.860Z,6.36
2018-12-27T05:23:27.352Z,6.33
2018-12-27T05:26:13.836Z,6.39
2018-12-27T05:28:40.573Z,6.35
2018-12-27T05:31:26.948Z,6.37
2018-12-27T05:34:13.420Z,6.30
2018-12-27T05:36:59.779Z,6.18
2018-12-27T05:39:26.599Z,6.13
2018-12-27T05:41:53.539Z,6.12
2018-12-27T05:44:40.185Z,6.09
2018-12-27T05:47:07.250Z,6.09
2018-12-27T05:49:34.254Z,6.08
2018-12-27T05:52:01.051Z,6.06
2018-12-27T05:54:27.750Z,5.98
2018-12-27T05:57:14.275Z,5.98
2018-12-27T06:00:00.942Z,5.97
2018-12-27T06:05:20.503Z,5.83
2018-12-27T06:10:19.939Z,5.95
2018-12-27T06:13:06.428Z,5.97
2018-12-27T06:15:33.167Z,5.84
2018-12-27T06:17:59.906Z,5.93
2018-12-27T06:22:59.774Z,5.84
2018-12-27T06:25:26.407Z,5.92
2018-12-27T06:28:13.172Z,5.94
2018-12-27T06:30:59.824Z,5.85
2018-12-27T06:33:26.581Z,5.88
2018-12-27T06:36:13.414Z,5.81
2018-12-27T06:38:41.065Z,5.78
2018-12-27T06:41:08.061Z,5.71
2018-12-27T06:43:34.831Z,5.73
2018-12-27T06:46:21.296Z,5.62
2018-12-27T06:48:48.251Z,5.55
2018-12-27T06:51:34.742Z,5.53
2018-12-27T06:54:21.105Z,5.63
2018-12-27T06:57:07.659Z,5.62
2018-12-27T06:59:34.283Z,5.66
2018-12-27T07:02:21.425Z,5.59
2018-12-27T07:04:49.046Z,5.63
2018-12-27T07:07:17.736Z,5.49
2018-12-27T07:09:44.775Z,5.61
2018-12-27T07:12:31.277Z,5.58
2018-12-27T07:14:58.038Z,5.63
2018-12-27T07:17:24.679Z,5.64
2018-12-27T07:19:51.443Z,5.70
2018-12-27T07:22:18.203Z,5.72
2018-12-27T07:25:04.586Z,5.69
2018-12-27T07:27:51.083Z,5.69
2018-12-27T07:30:37.722Z,5.63
2018-12-27T07:33:24.227Z,5.60
2018-12-27T07:36:10.876Z,5.57
2018-12-27T07:38:57.310Z,5.49
2018-12-27T07:41:43.698Z,5.48
2018-12-27T07:44:10.417Z,5.40
2018-12-27T07:46:37.377Z,5.44
2018-12-27T07:49:23.866Z,5.31
2018-12-27T07:52:10.490Z,5.20
2018-12-27T07:57:11.242Z,5.11
2018-12-27T07:59:39.689Z,5.09
2018-12-27T08:02:06.663Z,5.08
2018-12-27T08:04:53.270Z,5.09
2018-12-27T08:07:39.897Z,5.03
2018-12-27T08:10:26.325Z,5.16
2018-12-27T08:12:52.950Z,5.18
2018-12-27T08:15:39.979Z,5.22
2018-12-27T08:18:26.476Z,5.21
2018-12-27T08:20:53.321Z,5.28
2018-12-27T08:23:20.128Z,5.37
2018-12-27T08:25:46.758Z,5.43
2018-12-27T08:28:33.391Z,5.39
2018-12-27T08:31:20.176Z,5.45
2018-12-27T08:33:47.251Z,5.37
2018-12-27T08:36:33.603Z,5.36
2018-12-27T08:39:20.614Z,5.36
2018-12-27T08:42:07.418Z,5.32
2018-12-27T08:44:54.024Z,5.36
2018-12-27T08:47:20.827Z,5.35
2018-12-27T08:49:48.024Z,5.36
2018-12-27T08:52:34.778Z,5.32
2018-12-27T08:55:21.404Z,5.40
2018-12-27T08:58:08.237Z,5.44
2018-12-27T09:00:54.597Z,5.41
2018-12-27T09:05:54.349Z,5.47
2018-12-27T09:08:22.345Z,5.49
2018-12-27T09:10:49.315Z,5.44
2018-12-27T09:13:17.023Z,5.44
2018-12-27T09:16:03.606Z,5.40
2018-12-27T09:18:50.231Z,5.44
2018-12-27T09:23:49.812Z,5.47
2018-12-27T09:26:16.600Z,5.44
2018-12-27T09:28:43.324Z,5.47
2018-12-27T09:31:30.395Z,5.39
2018-12-27T09:33:57.111Z,5.40
2018-12-27T09:36:43.477Z,5.43
2018-12-27T09:41:43.331Z,5.40
2018-12-27T09:44:30.077Z,5.44
2018-12-27T09:47:16.744Z,5.52
2018-12-27T09:50:03.305Z,5.46
2018-12-27T09:52:49.809Z,5.45
2018-12-27T09:58:51.661Z,5.43
2018-12-27T10:01:38.138Z,5.52
2018-12-27T10:04:24.543Z,5.55
2018-12-27T10:09:24.065Z,5.54
2018-12-27T10:12:10.753Z,5.51
2018-12-27T10:14:57.466Z,5.58
2018-12-27T10:17:24.768Z,5.59
2018-12-27T10:20:11.838Z,5.51
2018-12-27T10:22:58.425Z,5.60
2018-12-27T10:25:25.861Z,5.60
2018-12-27T10:28:12.282Z,5.58
2018-12-27T10:30:39.016Z,5.63
2018-12-27T10:33:47.111Z,5.71
2018-12-27T10:36:33.468Z,5.75
2018-12-27T10:39:06.224Z,5.75
2018-12-27T10:41:32.960Z,5.79
2018-12-27T10:43:59.587Z,5.80
2018-12-27T10:46:26.276Z,5.74
2018-12-27T10:48:53.000Z,5.75
2018-12-27T10:51:39.875Z,5.84
2018-12-27T10:54:07.107Z,5.82
2018-12-27T10:56:34.313Z,5.81
2018-12-27T10:59:14.694Z,5.80
2018-12-27T11:02:01.057Z,5.77
2018-12-27T11:05:09.667Z,5.88
2018-12-27T11:07:56.301Z,5.92
2018-12-27T11:13:15.747Z,5.98
2018-12-27T11:15:42.469Z,5.95
2018-12-27T11:18:09.095Z,5.90
2018-12-27T11:20:55.509Z,5.89
2018-12-27T11:23:22.145Z,5.97
2018-12-27T11:25:48.905Z,5.96
2018-12-27T11:30:48.518Z,5.93
2018-12-27T11:33:15.284Z,5.95
2018-12-27T11:36:01.735Z,5.89
2018-12-27T11:38:28.377Z,5.94
2018-12-27T11:41:14.864Z,6.00
2018-12-27T11:44:01.275Z,6.03
2018-12-27T11:49:00.784Z,6.14
2018-12-27T11:51:27.410Z,6.23
2018-12-27T11:56:46.561Z,6.31
2018-12-27T11:59:33.045Z,6.27
2018-12-27T12:01:59.745Z,6.24
2018-12-27T12:04:46.237Z,6.24
2018-12-27T12:07:32.591Z,6.23
2018-12-27T12:10:19.308Z,6.32
2018-12-27T12:13:05.936Z,6.38
2018-12-27T12:15:52.380Z,6.34
2018-12-27T12:18:39.036Z,6.38
2018-12-27T12:23:38.993Z,6.39
2018-12-27T12:26:25.543Z,6.40
2018-12-27T12:29:12.035Z,6.34
2018-12-27T12:31:39.264Z,6.36
2018-12-27T12:34:25.612Z,6.44
2018-12-27T12:37:33.442Z,6.44
2018-12-27T12:40:19.820Z,6.36
2018-12-27T12:43:06.313Z,6.35
2018-12-27T12:45:52.662Z,6.25
2018-12-27T12:51:12.664Z,6.22
2018-12-27T12:53:39.372Z,6.34
2018-12-27T12:56:06.704Z,6.30
2018-12-27T12:58:53.119Z,6.23
2018-12-27T13:01:39.469Z,6.19
2018-12-27T13:04:19.489Z,6.24
2018-12-27T13:07:05.864Z,6.31
2018-12-27T13:09:52.558Z,6.29
2018-12-27T13:12:19.294Z,6.27
2018-12-27T13:15:06.055Z,6.23
2018-12-27T13:17:52.736Z,6.26
2018-12-27T13:20:19.525Z,6.23
2018-12-27T13:23:05.878Z,6.25
2018-12-27T13:25:52.255Z,6.27
2018-12-27T13:28:19.003Z,6.30
2018-12-27T13:30:45.736Z,6.25
2018-12-27T13:33:32.236Z,6.26
2018-12-27T13:36:25.212Z,6.29
2018-12-27T13:38:47.311Z,6.33
2018-12-27T13:41:33.810Z,6.27
2018-12-27T13:44:20.440Z,6.34
2018-12-27T13:47:06.864Z,6.35
2018-12-27T13:49:53.317Z,6.39
2018-12-27T13:52:20.052Z,6.35
2018-12-27T13:55:06.495Z,6.27
2018-12-27T13:57:33.131Z,6.28
2018-12-27T14:00:19.448Z,6.32
2018-12-27T14:03:05.802Z,6.32
2018-12-27T14:05:32.565Z,6.31
2018-12-27T14:08:19.053Z,6.34
2018-12-27T14:11:05.502Z,6.31
2018-12-27T14:13:51.859Z,6.40
2018-12-27T14:16:38.604Z,6.38
2018-12-27T14:19:24.963Z,6.38
2018-12-27T14:22:11.687Z,6.38
2018-12-27T14:24:58.318Z,6.42
2018-12-27T14:30:18.092Z,6.37
2018-12-27T14:32:45.250Z,6.38
2018-12-27T14:35:31.621Z,6.36
2018-12-27T14:38:18.148Z,6.35
2018-12-27T14:41:04.509Z,6.38
2018-12-27T14:43:50.987Z,6.40
2018-12-27T14:46:37.356Z,6.33
2018-12-27T14:49:23.882Z,6.34
2018-12-27T14:52:10.231Z,6.35
2018-12-27T14:57:10.328Z,6.28
2018-12-27T14:59:56.811Z,6.18
2018-12-27T15:02:43.486Z,6.19
2018-12-27T15:05:30.522Z,6.20
2018-12-27T15:07:57.230Z,6.25
2018-12-27T15:10:43.661Z,6.20
2018-12-27T15:13:30.020Z,6.18
2018-12-27T15:16:16.470Z,6.17
2018-12-27T15:19:03.075Z,6.14
2018-12-27T15:24:02.867Z,6.11
2018-12-27T15:26:49.302Z,6.16
2018-12-27T15:29:35.650Z,6.14
2018-12-27T15:32:22.097Z,6.09
2018-12-27T15:35:08.447Z,6.12
2018-12-27T15:37:55.052Z,6.15
2018-12-27T15:40:41.415Z,6.17
2018-12-27T15:48:53.947Z,6.16
2018-12-27T15:51:20.793Z,6.21
2018-12-27T15:54:07.568Z,6.20
2018-12-27T15:56:34.642Z,6.16
2018-12-27T15:59:01.273Z,6.09
2018-12-27T16:01:47.723Z,6.18
2018-12-27T16:04:34.453Z,6.12
2018-12-27T16:10:43.480Z,6.18
2018-12-27T16:13:30.451Z,6.18
2018-12-27T16:18:31.020Z,6.18
2018-12-27T16:21:17.653Z,6.19
2018-12-27T16:24:04.241Z,6.21
2018-12-27T16:26:31.709Z,6.25
2018-12-27T16:28:58.688Z,6.24
2018-12-27T16:31:25.766Z,6.32
2018-12-27T16:34:12.488Z,6.31
2018-12-27T16:36:39.124Z,6.31
2018-12-27T16:39:25.882Z,6.31
2018-12-27T16:42:12.381Z,6.35
2018-12-27T16:44:39.277Z,6.31
2018-12-27T16:47:26.000Z,6.32
2018-12-27T16:50:12.606Z,6.38
2018-12-27T16:52:39.442Z,6.39
2018-12-27T16:55:06.329Z,6.34
2018-12-27T16:57:52.989Z,6.42
2018-12-27T17:00:39.349Z,6.40
2018-12-27T17:03:25.858Z,6.37
2018-12-27T17:06:12.231Z,6.39
2018-12-27T17:08:58.827Z,6.40
2018-12-27T17:11:45.255Z,6.39
2018-12-27T17:14:12.177Z,6.42
2018-12-27T17:16:38.952Z,6.45
2018-12-27T17:19:25.436Z,6.42
2018-12-27T17:22:12.840Z,6.40
2018-12-27T17:27:12.573Z,6.49
2018-12-27T17:29:59.461Z,6.44
2018-12-27T17:32:45.812Z,6.44
2018-12-27T17:38:05.251Z,6.50
2018-12-27T17:40:51.977Z,6.48
2018-12-27T17:43:38.482Z,6.46
2018-12-27T17:46:05.185Z,6.47
2018-12-27T17:48:51.556Z,6.44
2018-12-27T17:51:38.054Z,6.50
2018-12-27T17:54:04.795Z,6.53
2018-12-27T17:56:51.208Z,6.59
2018-12-27T17:59:37.579Z,6.56
2018-12-27T18:02:24.071Z,6.52
2018-12-27T18:04:50.949Z,6.51
2018-12-27T18:07:37.365Z,6.56
2018-12-27T18:10:24.320Z,6.54
2018-12-27T18:15:23.570Z,6.55
2018-12-27T18:17:50.618Z,6.49
2018-12-27T18:20:17.420Z,6.48
2018-12-27T18:23:03.774Z,6.55
2018-12-27T18:25:30.547Z,6.52
2018-12-27T18:28:16.813Z,6.50
2018-12-27T18:31:03.443Z,6.58
2018-12-27T18:33:49.818Z,6.59
2018-12-27T18:36:36.225Z,6.53
2018-12-27T18:39:44.226Z,6.55
2018-12-27T18:44:44.455Z,6.56
2018-12-27T18:47:11.191Z,6.57
2018-12-27T18:52:33.335Z,6.53
2018-12-27T18:55:00.192Z,6.58
2018-12-27T18:57:26.918Z,6.67
2018-12-27T18:59:54.770Z,6.61
2018-12-27T19:02:21.600Z,6.59
2018-12-27T19:04:48.360Z,6.53
2018-12-27T19:07:15.303Z,6.51
2018-12-27T19:09:42.026Z,6.54
2018-12-27T19:12:45.207Z,6.52
2018-12-27T19:15:15.155Z,6.45
2018-12-27T19:17:50.176Z,6.59
2018-12-27T19:20:16.912Z,6.55
2018-12-27T19:22:51.991Z,6.55
2018-12-27T19:25:18.896Z,6.54
2018-12-27T19:27:45.535Z,6.57
2018-12-27T19:30:12.399Z,6.53
2018-12-27T19:32:39.184Z,6.54
2018-12-27T19:35:05.902Z,6.53
2018-12-27T19:40:25.641Z,6.57
2018-12-27T19:43:12.181Z,6.58
2018-12-27T19:45:58.941Z,6.58
2018-12-27T19:48:26.790Z,6.61
2018-12-27T19:50:53.520Z,6.58
2018-12-27T19:53:40.239Z,6.53
2018-12-27T19:56:26.484Z,6.53
2018-12-27T19:59:13.273Z,6.58
2018-12-27T20:01:59.707Z,6.60
2018-12-27T20:04:46.159Z,6.52
2018-12-27T20:07:12.919Z,6.55
2018-12-27T20:09:59.348Z,6.57
2018-12-27T20:12:45.777Z,6.48
2018-12-27T20:15:25.823Z,6.56
2018-12-27T20:18:12.181Z,6.48
2018-12-27T20:20:58.751Z,6.48
2018-12-27T20:23:45.111Z,6.49
2018-12-27T20:26:31.645Z,6.47
2018-12-27T20:31:45.100Z,6.38
2018-12-27T20:34:11.731Z,6.36
2018-12-27T20:36:58.156Z,6.39
2018-12-27T20:39:44.774Z,6.38
2018-12-27T20:42:31.277Z,6.42
2018-12-27T20:44:57.905Z,6.43
2018-12-27T20:47:44.648Z,6.44
2018-12-27T20:50:11.279Z,6.36
2018-12-27T20:52:57.747Z,6.51
2018-12-27T20:55:44.143Z,6.42
2018-12-27T20:58:30.829Z,6.47
2018-12-27T21:00:57.664Z,6.49
2018-12-27T21:03:44.144Z,6.43
2018-12-27T21:06:30.548Z,6.45
2018-12-27T21:08:57.244Z,6.37
2018-12-27T21:11:43.768Z,6.40
2018-12-27T21:14:30.609Z,6.43
2018-12-27T21:16:57.608Z,6.37
2018-12-27T21:19:24.522Z,6.41
2018-12-27T21:22:10.932Z,6.32
2018-12-27T21:24:58.134Z,6.32
2018-12-27T21:27:26.620Z,6.33
2018-12-27T21:30:12.995Z,6.24
2018-12-27T21:32:40.030Z,6.29
2018-12-27T21:35:26.397Z,6.27
2018-12-27T21:38:13.180Z,6.25
2018-12-27T21:40:59.549Z,6.22
2018-12-27T21:46:18.259Z,6.19
2018-12-27T21:49:04.768Z,6.21
2018-12-27T21:51:51.103Z,6.16
2018-12-27T21:57:10.127Z,6.21
2018-12-27T21:59:37.676Z,6.15
2018-12-27T22:02:06.294Z,6.07
2018-12-27T22:04:32.922Z,6.12
2018-12-27T22:06:59.910Z,6.06
2018-12-27T22:09:26.766Z,6.13
2018-12-27T22:11:53.939Z,6.12
2018-12-27T22:15:01.971Z,6.03
2018-12-27T22:17:28.665Z,5.98
2018-12-27T22:19:55.311Z,6.08
2018-12-27T22:22:22.543Z,6.07
2018-12-27T22:24:49.177Z,6.06
2018-12-27T22:27:57.159Z,6.09
2018-12-27T22:30:43.512Z,5.99
2018-12-27T22:33:30.115Z,5.97
2018-12-27T22:36:16.473Z,5.98
2018-12-27T22:38:43.298Z,6.05
2018-12-27T22:41:29.651Z,6.09
2018-12-27T22:44:16.394Z,6.09
2018-12-27T22:46:43.134Z,6.09
2018-12-27T22:49:10.197Z,6.09
2018-12-27T22:59:48.375Z,6.11
2018-12-27T23:02:15.535Z,6.08
2018-12-27T23:05:02.015Z,6.11
2018-12-27T23:07:48.502Z,6.13
2018-12-27T23:10:15.247Z,6.10
2018-12-27T23:13:01.947Z,6.09
2018-12-27T23:15:28.587Z,6.17
2018-12-27T23:17:56.112Z,6.16
2018-12-27T23:22:57.116Z,6.15
2018-12-27T23:25:23.847Z,6.14
2018-12-27T23:27:50.646Z,6.14
2018-12-27T23:30:17.377Z,6.12
2018-12-27T23:33:04.258Z,6.08
2018-12-27T23:35:50.611Z,6.10
2018-12-27T23:38:37.044Z,6.09
2018-12-27T23:41:23.291Z,6.13
2018-12-27T23:46:22.899Z,6.12
2018-12-27T23:48:49.527Z,6.14
2018-12-27T23:53:49.139Z,6.16
2018-12-27T23:56:15.771Z,6.16
2018-12-27T23:58:42.741Z,6.14
